sensor_id;sensor_type;location;lat;lon;timestamp;temperature;humidity
13086;DHT22;6609;49.882;8.664;2022-10-16T00:02:14;16.70;97.50
13086;DHT22;6609;49.882;8.664;2022-10-16T00:04:41;16.70;97.50
13086;DHT22;6609;49.882;8.664;2022-10-16T00:07:07;16.70;97.60
13086;DHT22;6609;49.882;8.664;2022-10-16T00:09:35;16.70;97.60
13086;DHT22;6609;49.882;8.664;2022-10-16T00:12:02;16.70;97.50
13086;DHT22;6609;49.882;8.664;2022-10-16T00:14:32;16.70;97.60
13086;DHT22;6609;49.882;8.664;2022-10-16T00:16:59;16.70;97.60
13086;DHT22;6609;49.882;8.664;2022-10-16T00:21:52;16.70;97.60
13086;DHT22;6609;49.882;8.664;2022-10-16T00:24:19;16.70;97.60
13086;DHT22;6609;49.882;8.664;2022-10-16T00:26:49;16.70;97.60
13086;DHT22;6609;49.882;8.664;2022-10-16T00:29:16;16.60;97.50
13086;DHT22;6609;49.882;8.664;2022-10-16T00:31:43;16.60;97.50
13086;DHT22;6609;49.882;8.664;2022-10-16T00:34:09;16.70;97.60
13086;DHT22;6609;49.882;8.664;2022-10-16T00:39:03;16.60;97.60
13086;DHT22;6609;49.882;8.664;2022-10-16T00:41:31;16.60;97.60
13086;DHT22;6609;49.882;8.664;2022-10-16T00:44:00;16.60;97.60
13086;DHT22;6609;49.882;8.664;2022-10-16T00:46:29;16.60;97.60
13086;DHT22;6609;49.882;8.664;2022-10-16T00:49:00;16.60;97.60
13086;DHT22;6609;49.882;8.664;2022-10-16T00:51:31;16.60;97.60
13086;DHT22;6609;49.882;8.664;2022-10-16T00:53:59;16.60;97.60
13086;DHT22;6609;49.882;8.664;2022-10-16T00:56:26;16.60;97.60
13086;DHT22;6609;49.882;8.664;2022-10-16T00:58:53;16.50;97.50
13086;DHT22;6609;49.882;8.664;2022-10-16T01:01:21;16.50;97.40
13086;DHT22;6609;49.882;8.664;2022-10-16T01:06:21;16.50;97.30
13086;DHT22;6609;49.882;8.664;2022-10-16T01:09:06;16.50;97.10
13086;DHT22;6609;49.882;8.664;2022-10-16T01:11:45;16.50;97.00
13086;DHT22;6609;49.882;8.664;2022-10-16T01:14:22;16.40;96.90
13086;DHT22;6609;49.882;8.664;2022-10-16T01:17:00;16.40;96.90
13086;DHT22;6609;49.882;8.664;2022-10-16T01:19:51;16.40;96.90
13086;DHT22;6609;49.882;8.664;2022-10-16T01:22:24;16.40;96.80
13086;DHT22;6609;49.882;8.664;2022-10-16T01:24:53;16.40;96.70
13086;DHT22;6609;49.882;8.664;2022-10-16T01:27:25;16.40;96.60
13086;DHT22;6609;49.882;8.664;2022-10-16T01:29:55;16.40;96.50
13086;DHT22;6609;49.882;8.664;2022-10-16T01:32:30;16.30;96.40
13086;DHT22;6609;49.882;8.664;2022-10-16T01:35:01;16.30;96.30
13086;DHT22;6609;49.882;8.664;2022-10-16T01:37:33;16.30;96.30
13086;DHT22;6609;49.882;8.664;2022-10-16T01:40:05;16.30;96.30
13086;DHT22;6609;49.882;8.664;2022-10-16T01:42:36;16.40;96.30
13086;DHT22;6609;49.882;8.664;2022-10-16T01:45:05;16.30;96.30
13086;DHT22;6609;49.882;8.664;2022-10-16T01:47:34;16.30;96.20
13086;DHT22;6609;49.882;8.664;2022-10-16T01:50:02;16.30;96.30
13086;DHT22;6609;49.882;8.664;2022-10-16T01:52:32;16.40;96.40
13086;DHT22;6609;49.882;8.664;2022-10-16T01:55:02;16.40;96.30
13086;DHT22;6609;49.882;8.664;2022-10-16T01:57:30;16.40;96.30
13086;DHT22;6609;49.882;8.664;2022-10-16T02:00:03;16.30;96.30
13086;DHT22;6609;49.882;8.664;2022-10-16T02:05:03;16.30;96.40
13086;DHT22;6609;49.882;8.664;2022-10-16T02:09:59;16.40;96.40
13086;DHT22;6609;49.882;8.664;2022-10-16T02:12:28;16.40;96.40
13086;DHT22;6609;49.882;8.664;2022-10-16T02:14:57;16.40;96.40
13086;DHT22;6609;49.882;8.664;2022-10-16T02:17:26;16.40;96.40
13086;DHT22;6609;49.882;8.664;2022-10-16T02:19:54;16.40;96.40
13086;DHT22;6609;49.882;8.664;2022-10-16T02:22:27;16.50;96.50
13086;DHT22;6609;49.882;8.664;2022-10-16T02:24:57;16.40;96.40
13086;DHT22;6609;49.882;8.664;2022-10-16T02:27:28;16.40;96.50
13086;DHT22;6609;49.882;8.664;2022-10-16T02:30:02;16.40;96.50
13086;DHT22;6609;49.882;8.664;2022-10-16T02:32:37;16.50;96.40
13086;DHT22;6609;49.882;8.664;2022-10-16T02:35:05;16.50;96.50
13086;DHT22;6609;49.882;8.664;2022-10-16T02:37:32;16.50;96.50
13086;DHT22;6609;49.882;8.664;2022-10-16T02:39:59;16.50;96.40
13086;DHT22;6609;49.882;8.664;2022-10-16T02:42:29;16.40;96.30
13086;DHT22;6609;49.882;8.664;2022-10-16T02:47:23;16.40;96.40
13086;DHT22;6609;49.882;8.664;2022-10-16T02:49:51;16.50;96.50
13086;DHT22;6609;49.882;8.664;2022-10-16T02:52:18;16.50;96.50
13086;DHT22;6609;49.882;8.664;2022-10-16T02:54:44;16.50;96.50
13086;DHT22;6609;49.882;8.664;2022-10-16T02:57:11;16.50;96.50
13086;DHT22;6609;49.882;8.664;2022-10-16T02:59:38;16.50;96.60
13086;DHT22;6609;49.882;8.664;2022-10-16T03:02:05;16.50;96.60
13086;DHT22;6609;49.882;8.664;2022-10-16T03:04:31;16.50;96.50
13086;DHT22;6609;49.882;8.664;2022-10-16T03:07:00;16.50;96.50
13086;DHT22;6609;49.882;8.664;2022-10-16T03:09:26;16.50;96.60
13086;DHT22;6609;49.882;8.664;2022-10-16T03:11:53;16.50;96.70
13086;DHT22;6609;49.882;8.664;2022-10-16T03:19:15;16.60;96.80
13086;DHT22;6609;49.882;8.664;2022-10-16T03:24:11;16.60;96.80
13086;DHT22;6609;49.882;8.664;2022-10-16T03:26:38;16.50;96.90
13086;DHT22;6609;49.882;8.664;2022-10-16T03:31:32;16.60;97.00
13086;DHT22;6609;49.882;8.664;2022-10-16T03:36:26;16.60;97.00
13086;DHT22;6609;49.882;8.664;2022-10-16T03:38:52;16.60;96.90
13086;DHT22;6609;49.882;8.664;2022-10-16T03:41:20;16.60;96.80
13086;DHT22;6609;49.882;8.664;2022-10-16T03:46:14;16.60;96.90
13086;DHT22;6609;49.882;8.664;2022-10-16T03:51:08;16.60;96.90
13086;DHT22;6609;49.882;8.664;2022-10-16T03:53:35;16.60;96.90
13086;DHT22;6609;49.882;8.664;2022-10-16T03:56:01;16.70;96.90
13086;DHT22;6609;49.882;8.664;2022-10-16T03:58:30;16.60;96.90
13086;DHT22;6609;49.882;8.664;2022-10-16T04:00:56;16.60;97.00
13086;DHT22;6609;49.882;8.664;2022-10-16T04:03:23;16.60;97.10
13086;DHT22;6609;49.882;8.664;2022-10-16T04:13:11;16.60;97.30
13086;DHT22;6609;49.882;8.664;2022-10-16T04:15:39;16.60;97.20
13086;DHT22;6609;49.882;8.664;2022-10-16T04:18:06;16.60;97.30
13086;DHT22;6609;49.882;8.664;2022-10-16T04:20:34;16.60;97.20
13086;DHT22;6609;49.882;8.664;2022-10-16T04:23:00;16.60;97.30
13086;DHT22;6609;49.882;8.664;2022-10-16T04:25:27;16.60;97.40
13086;DHT22;6609;49.882;8.664;2022-10-16T04:27:54;16.60;97.40
13086;DHT22;6609;49.882;8.664;2022-10-16T04:30:22;16.60;97.40
13086;DHT22;6609;49.882;8.664;2022-10-16T04:32:50;16.60;97.40
13086;DHT22;6609;49.882;8.664;2022-10-16T04:35:17;16.60;97.50
13086;DHT22;6609;49.882;8.664;2022-10-16T04:37:44;16.60;97.60
13086;DHT22;6609;49.882;8.664;2022-10-16T04:40:11;16.60;97.60
13086;DHT22;6609;49.882;8.664;2022-10-16T04:45:07;16.60;97.50
13086;DHT22;6609;49.882;8.664;2022-10-16T04:47:34;16.60;97.60
13086;DHT22;6609;49.882;8.664;2022-10-16T04:50:02;16.60;97.60
13086;DHT22;6609;49.882;8.664;2022-10-16T04:52:29;16.60;97.60
13086;DHT22;6609;49.882;8.664;2022-10-16T04:54:57;16.60;97.60
13086;DHT22;6609;49.882;8.664;2022-10-16T04:57:27;16.60;97.60
13086;DHT22;6609;49.882;8.664;2022-10-16T05:02:21;16.50;97.70
13086;DHT22;6609;49.882;8.664;2022-10-16T05:04:47;16.60;97.80
13086;DHT22;6609;49.882;8.664;2022-10-16T05:07:15;16.50;97.70
13086;DHT22;6609;49.882;8.664;2022-10-16T05:09:42;16.60;97.70
13086;DHT22;6609;49.882;8.664;2022-10-16T05:17:03;16.60;97.80
13086;DHT22;6609;49.882;8.664;2022-10-16T05:19:30;16.50;97.80
13086;DHT22;6609;49.882;8.664;2022-10-16T05:21:56;16.50;97.80
13086;DHT22;6609;49.882;8.664;2022-10-16T05:24:24;16.60;97.80
13086;DHT22;6609;49.882;8.664;2022-10-16T05:26:51;16.50;97.80
13086;DHT22;6609;49.882;8.664;2022-10-16T05:31:45;16.60;97.70
13086;DHT22;6609;49.882;8.664;2022-10-16T05:39:06;16.50;97.60
13086;DHT22;6609;49.882;8.664;2022-10-16T05:41:34;16.50;97.50
13086;DHT22;6609;49.882;8.664;2022-10-16T05:44:04;16.40;97.40
13086;DHT22;6609;49.882;8.664;2022-10-16T05:48:58;16.40;97.40
13086;DHT22;6609;49.882;8.664;2022-10-16T05:53:53;16.30;97.30
13086;DHT22;6609;49.882;8.664;2022-10-16T05:58:48;16.30;97.40
13086;DHT22;6609;49.882;8.664;2022-10-16T06:01:16;16.30;97.40
13086;DHT22;6609;49.882;8.664;2022-10-16T06:03:43;16.20;97.40
13086;DHT22;6609;49.882;8.664;2022-10-16T06:06:11;16.20;97.40
13086;DHT22;6609;49.882;8.664;2022-10-16T06:08:39;16.20;97.50
13086;DHT22;6609;49.882;8.664;2022-10-16T06:11:07;16.20;97.40
13086;DHT22;6609;49.882;8.664;2022-10-16T06:16:04;16.20;97.50
13086;DHT22;6609;49.882;8.664;2022-10-16T06:18:31;16.20;97.60
13086;DHT22;6609;49.882;8.664;2022-10-16T06:23:25;16.20;97.80
13086;DHT22;6609;49.882;8.664;2022-10-16T06:25:52;16.20;97.80
13086;DHT22;6609;49.882;8.664;2022-10-16T06:33:14;16.20;98.00
13086;DHT22;6609;49.882;8.664;2022-10-16T06:35:40;16.20;98.10
13086;DHT22;6609;49.882;8.664;2022-10-16T06:38:07;16.20;98.00
13086;DHT22;6609;49.882;8.664;2022-10-16T06:40:34;16.30;98.10
13086;DHT22;6609;49.882;8.664;2022-10-16T06:43:00;16.30;98.10
13086;DHT22;6609;49.882;8.664;2022-10-16T06:47:54;16.30;98.00
13086;DHT22;6609;49.882;8.664;2022-10-16T06:50:22;16.30;98.00
13086;DHT22;6609;49.882;8.664;2022-10-16T06:52:49;16.30;98.00
13086;DHT22;6609;49.882;8.664;2022-10-16T06:55:16;16.30;98.00
13086;DHT22;6609;49.882;8.664;2022-10-16T06:57:43;16.30;98.10
13086;DHT22;6609;49.882;8.664;2022-10-16T07:00:10;16.30;98.00
13086;DHT22;6609;49.882;8.664;2022-10-16T07:05:04;16.40;98.10
13086;DHT22;6609;49.882;8.664;2022-10-16T07:07:32;16.40;98.20
13086;DHT22;6609;49.882;8.664;2022-10-16T07:09:59;16.50;98.20
13086;DHT22;6609;49.882;8.664;2022-10-16T07:14:53;16.50;98.30
13086;DHT22;6609;49.882;8.664;2022-10-16T07:17:21;16.60;98.30
13086;DHT22;6609;49.882;8.664;2022-10-16T07:19:47;16.50;98.30
13086;DHT22;6609;49.882;8.664;2022-10-16T07:22:14;16.70;98.20
13086;DHT22;6609;49.882;8.664;2022-10-16T07:24:42;16.70;98.10
13086;DHT22;6609;49.882;8.664;2022-10-16T07:29:37;16.60;98.00
13086;DHT22;6609;49.882;8.664;2022-10-16T07:36:58;16.80;98.10
13086;DHT22;6609;49.882;8.664;2022-10-16T07:39:24;16.90;98.10
13086;DHT22;6609;49.882;8.664;2022-10-16T07:41:52;16.90;98.10
13086;DHT22;6609;49.882;8.664;2022-10-16T07:46:46;17.00;97.90
13086;DHT22;6609;49.882;8.664;2022-10-16T07:49:13;17.00;97.80
13086;DHT22;6609;49.882;8.664;2022-10-16T07:51:39;17.10;97.70
13086;DHT22;6609;49.882;8.664;2022-10-16T07:54:08;17.10;97.60
13086;DHT22;6609;49.882;8.664;2022-10-16T07:59:03;17.20;97.40
13086;DHT22;6609;49.882;8.664;2022-10-16T08:03:56;17.30;97.30
13086;DHT22;6609;49.882;8.664;2022-10-16T08:06:23;17.30;97.20
13086;DHT22;6609;49.882;8.664;2022-10-16T08:11:17;17.30;97.00
13086;DHT22;6609;49.882;8.664;2022-10-16T08:13:44;17.30;96.90
13086;DHT22;6609;49.882;8.664;2022-10-16T08:16:12;17.30;96.80
13086;DHT22;6609;49.882;8.664;2022-10-16T08:18:40;17.40;96.80
13086;DHT22;6609;49.882;8.664;2022-10-16T08:21:08;17.40;96.70
13086;DHT22;6609;49.882;8.664;2022-10-16T08:26:05;17.40;96.50
13086;DHT22;6609;49.882;8.664;2022-10-16T08:28:32;17.50;96.40
13086;DHT22;6609;49.882;8.664;2022-10-16T08:31:05;17.50;96.30
13086;DHT22;6609;49.882;8.664;2022-10-16T08:33:34;17.50;96.20
13086;DHT22;6609;49.882;8.664;2022-10-16T08:38:28;17.40;96.20
13086;DHT22;6609;49.882;8.664;2022-10-16T08:41:00;17.40;96.20
13086;DHT22;6609;49.882;8.664;2022-10-16T08:43:40;17.30;96.20
13086;DHT22;6609;49.882;8.664;2022-10-16T08:46:33;17.20;96.40
13086;DHT22;6609;49.882;8.664;2022-10-16T08:49:10;17.20;96.50
13086;DHT22;6609;49.882;8.664;2022-10-16T08:51:39;17.20;96.60
13086;DHT22;6609;49.882;8.664;2022-10-16T08:54:10;17.20;96.70
13086;DHT22;6609;49.882;8.664;2022-10-16T08:59:09;17.10;96.80
13086;DHT22;6609;49.882;8.664;2022-10-16T09:01:40;17.10;96.90
13086;DHT22;6609;49.882;8.664;2022-10-16T09:07:12;17.10;97.10
13086;DHT22;6609;49.882;8.664;2022-10-16T09:09:54;17.00;97.00
13086;DHT22;6609;49.882;8.664;2022-10-16T09:12:30;17.10;97.20
13086;DHT22;6609;49.882;8.664;2022-10-16T09:15:12;17.10;97.20
13086;DHT22;6609;49.882;8.664;2022-10-16T09:17:49;17.10;97.30
13086;DHT22;6609;49.882;8.664;2022-10-16T09:20:25;17.10;97.40
13086;DHT22;6609;49.882;8.664;2022-10-16T09:22:56;17.10;97.50
13086;DHT22;6609;49.882;8.664;2022-10-16T09:30:21;17.30;97.70
13086;DHT22;6609;49.882;8.664;2022-10-16T09:32:51;17.30;97.70
13086;DHT22;6609;49.882;8.664;2022-10-16T09:35:21;17.40;97.70
13086;DHT22;6609;49.882;8.664;2022-10-16T09:37:50;17.50;97.80
13086;DHT22;6609;49.882;8.664;2022-10-16T09:40:26;17.60;97.70
13086;DHT22;6609;49.882;8.664;2022-10-16T09:43:01;17.70;97.70
13086;DHT22;6609;49.882;8.664;2022-10-16T09:45:28;17.80;97.60
13086;DHT22;6609;49.882;8.664;2022-10-16T09:50:24;18.20;97.60
13086;DHT22;6609;49.882;8.664;2022-10-16T09:53:04;18.40;97.60
13086;DHT22;6609;49.882;8.664;2022-10-16T09:55:32;18.60;97.30
13086;DHT22;6609;49.882;8.664;2022-10-16T09:57:59;19.10;98.40
13086;DHT22;6609;49.882;8.664;2022-10-16T10:02:53;22.00;95.30
13086;DHT22;6609;49.882;8.664;2022-10-16T10:05:22;22.50;90.20
13086;DHT22;6609;49.882;8.664;2022-10-16T10:07:54;22.70;85.30
13086;DHT22;6609;49.882;8.664;2022-10-16T10:10:23;22.80;83.70
13086;DHT22;6609;49.882;8.664;2022-10-16T10:12:52;22.90;82.10
13086;DHT22;6609;49.882;8.664;2022-10-16T10:15:19;23.00;79.60
13086;DHT22;6609;49.882;8.664;2022-10-16T10:17:49;22.90;77.50
13086;DHT22;6609;49.882;8.664;2022-10-16T10:20:23;22.40;77.00
13086;DHT22;6609;49.882;8.664;2022-10-16T10:25:38;21.90;78.40
13086;DHT22;6609;49.882;8.664;2022-10-16T10:28:32;22.00;78.40
13086;DHT22;6609;49.882;8.664;2022-10-16T10:31:04;22.00;78.40
13086;DHT22;6609;49.882;8.664;2022-10-16T10:33:39;22.10;78.50
13086;DHT22;6609;49.882;8.664;2022-10-16T10:36:15;22.20;78.50
13086;DHT22;6609;49.882;8.664;2022-10-16T10:38:49;22.20;77.70
13086;DHT22;6609;49.882;8.664;2022-10-16T10:44:25;22.00;78.00
13086;DHT22;6609;49.882;8.664;2022-10-16T10:46:57;22.00;77.70
13086;DHT22;6609;49.882;8.664;2022-10-16T10:49:39;22.00;77.50
13086;DHT22;6609;49.882;8.664;2022-10-16T10:52:24;22.10;78.00
13086;DHT22;6609;49.882;8.664;2022-10-16T10:55:12;22.20;76.50
13086;DHT22;6609;49.882;8.664;2022-10-16T10:57:52;22.30;75.20
13086;DHT22;6609;49.882;8.664;2022-10-16T11:00:30;22.40;75.50
13086;DHT22;6609;49.882;8.664;2022-10-16T11:03:06;22.50;74.80
13086;DHT22;6609;49.882;8.664;2022-10-16T11:05:41;22.50;74.50
13086;DHT22;6609;49.882;8.664;2022-10-16T11:08:15;22.50;74.60
13086;DHT22;6609;49.882;8.664;2022-10-16T11:10:50;22.60;74.10
13086;DHT22;6609;49.882;8.664;2022-10-16T11:13:26;22.60;73.90
13086;DHT22;6609;49.882;8.664;2022-10-16T11:15:59;22.50;73.60
13086;DHT22;6609;49.882;8.664;2022-10-16T11:18:32;22.60;73.70
13086;DHT22;6609;49.882;8.664;2022-10-16T11:21:04;22.70;73.50
13086;DHT22;6609;49.882;8.664;2022-10-16T11:23:37;22.60;72.80
13086;DHT22;6609;49.882;8.664;2022-10-16T11:26:12;22.40;72.70
13086;DHT22;6609;49.882;8.664;2022-10-16T11:28:44;22.30;73.70
13086;DHT22;6609;49.882;8.664;2022-10-16T11:31:18;22.30;74.70
13086;DHT22;6609;49.882;8.664;2022-10-16T11:33:51;22.40;74.20
13086;DHT22;6609;49.882;8.664;2022-10-16T11:36:25;22.50;73.20
13086;DHT22;6609;49.882;8.664;2022-10-16T11:41:29;22.00;73.70
13086;DHT22;6609;49.882;8.664;2022-10-16T11:44:09;21.80;74.60
13086;DHT22;6609;49.882;8.664;2022-10-16T11:46:46;21.70;75.20
13086;DHT22;6609;49.882;8.664;2022-10-16T11:49:18;21.60;75.20
13086;DHT22;6609;49.882;8.664;2022-10-16T11:51:50;21.40;75.10
13086;DHT22;6609;49.882;8.664;2022-10-16T11:54:24;21.50;75.20
13086;DHT22;6609;49.882;8.664;2022-10-16T11:56:56;21.80;75.00
13086;DHT22;6609;49.882;8.664;2022-10-16T11:59:30;22.00;74.00
13086;DHT22;6609;49.882;8.664;2022-10-16T12:02:10;22.30;73.70
13086;DHT22;6609;49.882;8.664;2022-10-16T12:04:47;22.50;72.30
13086;DHT22;6609;49.882;8.664;2022-10-16T12:07:18;22.60;72.50
13086;DHT22;6609;49.882;8.664;2022-10-16T12:09:45;22.60;72.30
13086;DHT22;6609;49.882;8.664;2022-10-16T12:12:25;22.80;71.90
13086;DHT22;6609;49.882;8.664;2022-10-16T12:15:00;22.90;71.10
13086;DHT22;6609;49.882;8.664;2022-10-16T12:17:35;23.00;70.80
13086;DHT22;6609;49.882;8.664;2022-10-16T12:20:20;23.30;69.90
13086;DHT22;6609;49.882;8.664;2022-10-16T12:22:49;23.50;68.80
13086;DHT22;6609;49.882;8.664;2022-10-16T12:25:21;23.60;68.40
13086;DHT22;6609;49.882;8.664;2022-10-16T12:27:55;23.50;68.10
13086;DHT22;6609;49.882;8.664;2022-10-16T12:30:24;23.30;68.40
13086;DHT22;6609;49.882;8.664;2022-10-16T12:32:56;22.90;68.90
13086;DHT22;6609;49.882;8.664;2022-10-16T12:35:26;22.70;69.90
13086;DHT22;6609;49.882;8.664;2022-10-16T12:37:54;22.40;69.70
13086;DHT22;6609;49.882;8.664;2022-10-16T12:40:27;22.30;70.70
13086;DHT22;6609;49.882;8.664;2022-10-16T12:42:54;22.10;72.00
13086;DHT22;6609;49.882;8.664;2022-10-16T12:45:28;22.10;72.30
13086;DHT22;6609;49.882;8.664;2022-10-16T12:47:56;22.30;72.50
13086;DHT22;6609;49.882;8.664;2022-10-16T12:50:31;22.20;72.10
13086;DHT22;6609;49.882;8.664;2022-10-16T12:52:59;22.20;72.10
13086;DHT22;6609;49.882;8.664;2022-10-16T12:58:04;22.10;72.40
13086;DHT22;6609;49.882;8.664;2022-10-16T13:00:41;21.90;72.60
13086;DHT22;6609;49.882;8.664;2022-10-16T13:03:34;21.80;72.80
13086;DHT22;6609;49.882;8.664;2022-10-16T13:06:13;21.70;73.20
13086;DHT22;6609;49.882;8.664;2022-10-16T13:08:57;21.70;73.30
13086;DHT22;6609;49.882;8.664;2022-10-16T13:11:48;21.70;73.40
13086;DHT22;6609;49.882;8.664;2022-10-16T13:14:36;21.70;74.10
13086;DHT22;6609;49.882;8.664;2022-10-16T13:17:11;21.60;74.40
13086;DHT22;6609;49.882;8.664;2022-10-16T13:19:45;21.70;74.40
13086;DHT22;6609;49.882;8.664;2022-10-16T13:22:21;21.60;74.50
13086;DHT22;6609;49.882;8.664;2022-10-16T13:24:59;21.50;74.60
13086;DHT22;6609;49.882;8.664;2022-10-16T13:27:35;21.50;75.10
13086;DHT22;6609;49.882;8.664;2022-10-16T13:30:13;21.30;75.90
13086;DHT22;6609;49.882;8.664;2022-10-16T13:32:45;21.20;76.30
13086;DHT22;6609;49.882;8.664;2022-10-16T13:35:22;21.10;76.60
13086;DHT22;6609;49.882;8.664;2022-10-16T13:40:22;21.00;77.40
13086;DHT22;6609;49.882;8.664;2022-10-16T13:45:20;20.90;78.00
13086;DHT22;6609;49.882;8.664;2022-10-16T13:52:44;20.90;79.20
13086;DHT22;6609;49.882;8.664;2022-10-16T13:55:12;20.80;79.60
13086;DHT22;6609;49.882;8.664;2022-10-16T13:57:39;20.80;80.10
13086;DHT22;6609;49.882;8.664;2022-10-16T14:00:18;20.80;80.30
13086;DHT22;6609;49.882;8.664;2022-10-16T14:07:49;20.70;81.80
13086;DHT22;6609;49.882;8.664;2022-10-16T14:10:23;20.80;82.40
13086;DHT22;6609;49.882;8.664;2022-10-16T14:13:01;20.70;83.50
13086;DHT22;6609;49.882;8.664;2022-10-16T14:17:58;20.70;84.60
13086;DHT22;6609;49.882;8.664;2022-10-16T14:20:27;20.70;85.20
13086;DHT22;6609;49.882;8.664;2022-10-16T14:25:30;20.60;86.40
13086;DHT22;6609;49.882;8.664;2022-10-16T14:32:56;20.60;87.20
13086;DHT22;6609;49.882;8.664;2022-10-16T14:37:52;20.60;87.50
13086;DHT22;6609;49.882;8.664;2022-10-16T14:47:51;20.40;88.20
13086;DHT22;6609;49.882;8.664;2022-10-16T14:50:18;20.40;88.50
13086;DHT22;6609;49.882;8.664;2022-10-16T14:57:41;20.20;88.50
13086;DHT22;6609;49.882;8.664;2022-10-16T15:05:13;20.20;89.10
13086;DHT22;6609;49.882;8.664;2022-10-16T15:10:07;20.20;88.90
13086;DHT22;6609;49.882;8.664;2022-10-16T15:17:37;20.20;88.90
13086;DHT22;6609;49.882;8.664;2022-10-16T15:22:31;20.30;89.20
13086;DHT22;6609;49.882;8.664;2022-10-16T15:34:47;20.30;89.30
13086;DHT22;6609;49.882;8.664;2022-10-16T15:37:14;20.20;89.70
13086;DHT22;6609;49.882;8.664;2022-10-16T15:47:02;20.20;90.30
13086;DHT22;6609;49.882;8.664;2022-10-16T15:49:30;20.20;90.30
13086;DHT22;6609;49.882;8.664;2022-10-16T15:54:24;20.10;90.50
13086;DHT22;6609;49.882;8.664;2022-10-16T15:56:50;20.10;90.60
13086;DHT22;6609;49.882;8.664;2022-10-16T15:59:17;20.00;90.70
13086;DHT22;6609;49.882;8.664;2022-10-16T16:14:04;19.70;91.70
13086;DHT22;6609;49.882;8.664;2022-10-16T16:16:31;19.60;92.00
13086;DHT22;6609;49.882;8.664;2022-10-16T16:19:02;19.60;92.10
13086;DHT22;6609;49.882;8.664;2022-10-16T16:21:29;19.60;92.20
13086;DHT22;6609;49.882;8.664;2022-10-16T16:28:52;19.40;92.60
13086;DHT22;6609;49.882;8.664;2022-10-16T16:33:46;19.50;92.70
13086;DHT22;6609;49.882;8.664;2022-10-16T16:38:40;19.40;92.70
13086;DHT22;6609;49.882;8.664;2022-10-16T16:41:19;19.40;92.70
13086;DHT22;6609;49.882;8.664;2022-10-16T16:53:40;19.20;93.30
13086;DHT22;6609;49.882;8.664;2022-10-16T16:58:36;19.10;93.40
13086;DHT22;6609;49.882;8.664;2022-10-16T17:03:32;19.00;93.60
13086;DHT22;6609;49.882;8.664;2022-10-16T17:06:00;18.90;93.80
13086;DHT22;6609;49.882;8.664;2022-10-16T17:08:27;18.90;93.90
13086;DHT22;6609;49.882;8.664;2022-10-16T17:10:55;18.90;93.90
13086;DHT22;6609;49.882;8.664;2022-10-16T17:15:51;18.90;93.90
13086;DHT22;6609;49.882;8.664;2022-10-16T17:20:45;18.90;94.00
13086;DHT22;6609;49.882;8.664;2022-10-16T17:28:08;18.80;94.10
13086;DHT22;6609;49.882;8.664;2022-10-16T17:30:36;18.80;94.20
13086;DHT22;6609;49.882;8.664;2022-10-16T17:33:06;18.80;94.30
13086;DHT22;6609;49.882;8.664;2022-10-16T17:35:36;18.80;94.30
13086;DHT22;6609;49.882;8.664;2022-10-16T17:40:30;18.70;94.20
13086;DHT22;6609;49.882;8.664;2022-10-16T17:42:57;18.70;94.30
13086;DHT22;6609;49.882;8.664;2022-10-16T17:47:51;18.60;94.40
13086;DHT22;6609;49.882;8.664;2022-10-16T17:50:19;18.50;94.40
13086;DHT22;6609;49.882;8.664;2022-10-16T17:55:13;18.50;94.40
13086;DHT22;6609;49.882;8.664;2022-10-16T18:00:08;18.40;94.40
13086;DHT22;6609;49.882;8.664;2022-10-16T18:02:35;18.40;94.40
13086;DHT22;6609;49.882;8.664;2022-10-16T18:05:02;18.30;94.40
13086;DHT22;6609;49.882;8.664;2022-10-16T18:09:59;18.30;94.40
13086;DHT22;6609;49.882;8.664;2022-10-16T18:24:45;18.10;94.40
13086;DHT22;6609;49.882;8.664;2022-10-16T18:27:12;18.10;94.40
13086;DHT22;6609;49.882;8.664;2022-10-16T18:34:33;17.90;94.30
13086;DHT22;6609;49.882;8.664;2022-10-16T18:37:01;17.80;94.40
13086;DHT22;6609;49.882;8.664;2022-10-16T18:39:28;17.80;94.40
13086;DHT22;6609;49.882;8.664;2022-10-16T18:41:56;17.80;94.40
13086;DHT22;6609;49.882;8.664;2022-10-16T18:44:25;17.80;94.60
13086;DHT22;6609;49.882;8.664;2022-10-16T18:49:21;17.70;94.60
13086;DHT22;6609;49.882;8.664;2022-10-16T18:51:48;17.70;94.60
13086;DHT22;6609;49.882;8.664;2022-10-16T18:54:17;17.80;94.60
13086;DHT22;6609;49.882;8.664;2022-10-16T18:59:12;17.60;94.60
13086;DHT22;6609;49.882;8.664;2022-10-16T19:01:39;17.70;94.70
13086;DHT22;6609;49.882;8.664;2022-10-16T19:06:37;17.60;94.70
13086;DHT22;6609;49.882;8.664;2022-10-16T19:11:31;17.60;94.70
13086;DHT22;6609;49.882;8.664;2022-10-16T19:16:28;17.60;94.70
13086;DHT22;6609;49.882;8.664;2022-10-16T19:18:57;17.50;94.70
13086;DHT22;6609;49.882;8.664;2022-10-16T19:21:25;17.50;94.60
13086;DHT22;6609;49.882;8.664;2022-10-16T19:26:20;17.50;94.50
13086;DHT22;6609;49.882;8.664;2022-10-16T19:28:48;17.40;94.40
13086;DHT22;6609;49.882;8.664;2022-10-16T19:31:17;17.40;94.40
13086;DHT22;6609;49.882;8.664;2022-10-16T19:33:46;17.30;94.30
13086;DHT22;6609;49.882;8.664;2022-10-16T19:38:43;17.30;94.40
13086;DHT22;6609;49.882;8.664;2022-10-16T19:41:11;17.30;94.40
13086;DHT22;6609;49.882;8.664;2022-10-16T19:43:39;17.20;94.30
13086;DHT22;6609;49.882;8.664;2022-10-16T19:46:07;17.20;94.30
13086;DHT22;6609;49.882;8.664;2022-10-16T19:48:34;17.20;94.40
13086;DHT22;6609;49.882;8.664;2022-10-16T19:51:03;17.20;94.40
13086;DHT22;6609;49.882;8.664;2022-10-16T19:53:30;17.20;94.40
13086;DHT22;6609;49.882;8.664;2022-10-16T19:55:58;17.20;94.40
13086;DHT22;6609;49.882;8.664;2022-10-16T20:05:51;17.10;94.50
13086;DHT22;6609;49.882;8.664;2022-10-16T20:08:19;17.10;94.50
13086;DHT22;6609;49.882;8.664;2022-10-16T20:10:49;17.10;94.50
13086;DHT22;6609;49.882;8.664;2022-10-16T20:15:43;17.10;94.40
13086;DHT22;6609;49.882;8.664;2022-10-16T20:20:40;17.10;94.30
13086;DHT22;6609;49.882;8.664;2022-10-16T20:23:07;17.10;94.40
13086;DHT22;6609;49.882;8.664;2022-10-16T20:25:36;17.10;94.30
13086;DHT22;6609;49.882;8.664;2022-10-16T20:30:32;17.10;94.30
13086;DHT22;6609;49.882;8.664;2022-10-16T20:32:59;17.00;94.20
13086;DHT22;6609;49.882;8.664;2022-10-16T20:37:53;17.00;94.10
13086;DHT22;6609;49.882;8.664;2022-10-16T20:40:20;17.00;94.10
13086;DHT22;6609;49.882;8.664;2022-10-16T20:42:48;17.00;94.10
13086;DHT22;6609;49.882;8.664;2022-10-16T20:47:42;16.90;94.10
13086;DHT22;6609;49.882;8.664;2022-10-16T20:50:08;16.80;94.10
13086;DHT22;6609;49.882;8.664;2022-10-16T20:52:35;16.80;94.10
13086;DHT22;6609;49.882;8.664;2022-10-16T20:57:29;16.80;94.20
13086;DHT22;6609;49.882;8.664;2022-10-16T20:59:57;16.80;94.20
13086;DHT22;6609;49.882;8.664;2022-10-16T21:02:24;16.70;94.10
13086;DHT22;6609;49.882;8.664;2022-10-16T21:04:51;16.70;94.00
13086;DHT22;6609;49.882;8.664;2022-10-16T21:07:18;16.70;94.10
13086;DHT22;6609;49.882;8.664;2022-10-16T21:09:44;16.70;94.00
13086;DHT22;6609;49.882;8.664;2022-10-16T21:12:11;16.60;94.00
13086;DHT22;6609;49.882;8.664;2022-10-16T21:14:38;16.60;94.00
13086;DHT22;6609;49.882;8.664;2022-10-16T21:17:06;16.60;93.90
13086;DHT22;6609;49.882;8.664;2022-10-16T21:19:33;16.50;93.80
13086;DHT22;6609;49.882;8.664;2022-10-16T21:21:59;16.40;93.80